< Typhoon 198904 1989 Season Typhoon 198906 >
Typhoon 198905 (DOT)
General InformationTrack Information on Google MapsDetailed Wind InformationList of All Images || Disaster Info.ResourceGoogle EarthGE AnimationAtom FeedGeoJSON
Detalied Best Track (Time Zone = UTC)
Year Month Day Hour Lat. Long. Pressure (hPa) Wind (kt) Class Image Chart
1989 6 4 00 7.5 135.3 1008 0 2 Image Chart
1989 6 4 06 7.8 134.0 1006 0 2 Image Chart
1989 6 4 12 8.3 132.7 1006 0 2 Image Chart
1989 6 4 18 8.7 131.5 1006 0 2 Image Chart
1989 6 5 00 9.1 130.3 1006 0 2 Image Chart
1989 6 5 06 9.6 129.1 1004 0 2 Image Chart
1989 6 5 12 10.4 128.0 1000 35 3 Image Chart
1989 6 5 18 11.2 126.8 998 35 3 Image Chart
1989 6 6 00 11.8 125.5 998 35 3 Image Chart
1989 6 6 06 12.3 124.1 996 40 3 Image Chart
1989 6 6 12 12.6 123.0 994 45 3 Image Chart
1989 6 6 18 13.1 121.7 992 45 3 Image Chart
1989 6 7 00 13.4 120.0 990 45 3 Image Chart
1989 6 7 06 13.7 118.7 985 50 4 Image Chart
1989 6 7 12 14.1 118.1 985 50 4 Image Chart
1989 6 7 18 14.5 117.5 980 55 4 Image Chart
1989 6 8 00 15.0 116.7 975 60 4 Image Chart
1989 6 8 06 15.7 116.0 970 65 5 Image Chart
1989 6 8 12 16.2 115.0 965 70 5 Image Chart
1989 6 8 18 16.3 114.4 960 75 5 Image Chart
1989 6 9 00 16.6 113.6 960 75 5 Image Chart
1989 6 9 06 17.0 112.7 955 80 5 Image Chart
1989 6 9 12 17.3 111.9 955 80 5 Image Chart
1989 6 9 18 17.6 111.0 955 80 5 Image Chart
1989 6 10 00 18.0 110.3 960 75 5 Image Chart
1989 6 10 06 18.5 109.0 965 70 5 Image Chart
1989 6 10 12 19.0 108.9 970 65 5 Image Chart
1989 6 10 18 19.3 108.1 975 60 4 Image Chart
1989 6 11 00 19.8 107.4 980 55 4 Image Chart
1989 6 11 06 20.5 106.8 980 55 4 Image Chart
1989 6 11 12 20.9 106.2 985 50 4 Image Chart
1989 6 11 18 21.3 105.6 994 40 3 Image Chart
1989 6 12 00 21.5 105.0 1000 0 2 Image Chart
1989 6 12 06 22.0 104.5 1000 0 2 Image Chart
1989 6 12 12 22.5 104.0 1000 0 2 Image Chart
Japan Meteorological Agency Best Track Data | Correction Date : 1992-10-21
< Typhoon 198904 1989 Season Typhoon 198906 >

Help